Time;durP1;ratioP1;P1;durP2;ratioP2;P2;SDS_P1;SDS_P2;PMS_P1;PMS_P2;Temp;Humidity;BMP_temperature;BMP_pressure;BME280_temperature;BME280_humidity;BME280_pressure;Samples;Min_cycle;Max_cycle;Signal;HPM_P1;HPM_P2
2022/10/18 00:00:16;;;;;;;7.72;4.93;;;;;;;14.16;100.00;101724.75;696515;28;1435;-62
2022/10/18 00:00:37;;;;;;;7.70;5.03;;;;;;;14.17;100.00;101728.25;696304;28;4498;-62
2022/10/18 00:00:57;;;;;;;8.13;4.90;;;;;;;14.16;100.00;101727.38;697620;28;1107;-62
2022/10/18 00:01:17;;;;;;;8.35;5.00;;;;;;;14.17;100.00;101728.25;696425;28;1188;-62
2022/10/18 00:01:38;;;;;;;7.10;4.60;;;;;;;14.16;100.00;101730.00;698240;28;1193;-62
2022/10/18 00:01:58;;;;;;;8.55;4.97;;;;;;;14.17;100.00;101729.13;696114;28;1087;-62
2022/10/18 00:02:18;;;;;;;9.83;5.20;;;;;;;14.17;100.00;101729.13;695805;28;1164;-62
2022/10/18 00:02:39;;;;;;;8.27;5.03;;;;;;;14.17;100.00;101733.53;697157;28;1207;-62
2022/10/18 00:02:59;;;;;;;6.50;4.60;;;;;;;14.16;100.00;101726.50;695996;28;1095;-62
2022/10/18 00:03:20;;;;;;;7.30;4.83;;;;;;;14.15;100.00;101730.91;696226;28;1122;-62
2022/10/18 00:03:41;;;;;;;7.85;4.88;;;;;;;14.16;100.00;101732.63;696120;28;4455;-62
2022/10/18 00:04:01;;;;;;;7.93;4.77;;;;;;;14.16;100.00;101732.63;697029;28;1126;-62
2022/10/18 00:04:22;;;;;;;7.50;4.67;;;;;;;14.16;100.00;101727.38;697146;28;1129;-62
2022/10/18 00:04:42;;;;;;;6.50;5.03;;;;;;;14.15;100.00;101730.91;699434;28;1213;-62
2022/10/18 00:05:03;;;;;;;7.20;4.90;;;;;;;14.16;100.00;101726.50;698901;28;1251;-62
2022/10/18 00:05:23;;;;;;;8.20;4.90;;;;;;;14.14;100.00;101727.38;699243;28;1079;-62
2022/10/18 00:05:43;;;;;;;8.27;5.03;;;;;;;14.13;100.00;101735.28;698778;28;1134;-62
2022/10/18 00:06:07;;;;;;;8.38;5.50;;;;;;;14.10;100.00;101730.91;699425;28;1258;-62
2022/10/18 00:06:28;;;;;;;8.43;5.93;;;;;;;14.10;100.00;101733.53;697721;28;1201;-63
2022/10/18 00:06:48;;;;;;;9.73;6.30;;;;;;;14.09;100.00;101730.91;693115;28;4275;-62
2022/10/18 00:07:09;;;;;;;9.73;6.35;;;;;;;14.09;100.00;101737.03;696393;28;1329;-63
2022/10/18 00:07:29;;;;;;;8.53;5.90;;;;;;;14.09;100.00;101736.16;696734;28;1921;-63
2022/10/18 00:07:49;;;;;;;8.07;5.75;;;;;;;14.07;100.00;101733.53;697152;28;1380;-62
2022/10/18 00:08:10;;;;;;;7.97;5.20;;;;;;;14.08;100.00;101743.19;697288;28;1143;-63
2022/10/18 00:08:30;;;;;;;10.03;5.30;;;;;;;14.08;100.00;101734.41;696172;28;1341;-63
2022/10/18 00:08:51;;;;;;;8.97;5.20;;;;;;;14.06;100.00;101733.53;696485;28;1309;-63
2022/10/18 00:09:12;;;;;;;7.90;5.07;;;;;;;14.04;100.00;101730.91;696822;28;1265;-63
2022/10/18 00:09:33;;;;;;;10.25;5.30;;;;;;;14.03;100.00;101730.94;697433;28;1274;-63
2022/10/18 00:09:53;;;;;;;9.52;5.40;;;;;;;14.03;100.00;101733.56;696074;28;4274;-63
2022/10/18 00:10:14;;;;;;;7.78;5.35;;;;;;;14.03;100.00;101736.19;696907;28;1301;-63
2022/10/18 00:10:34;;;;;;;10.00;5.40;;;;;;;14.02;100.00;101731.81;696678;28;1300;-63
2022/10/18 00:10:55;;;;;;;9.20;5.33;;;;;;;14.02;100.00;101734.44;697240;28;1448;-63
2022/10/18 00:11:15;;;;;;;9.55;5.22;;;;;;;14.01;100.00;101732.66;696546;28;1502;-63
2022/10/18 00:11:36;;;;;;;7.97;5.10;;;;;;;14.00;100.00;101733.53;697980;28;1369;-63
2022/10/18 00:11:56;;;;;;;7.50;5.07;;;;;;;14.01;100.00;101735.31;698224;28;1526;-63
2022/10/18 00:12:17;;;;;;;8.10;4.97;;;;;;;14.02;100.00;101735.28;697702;28;1233;-63
2022/10/18 00:12:37;;;;;;;9.07;5.27;;;;;;;14.02;100.00;101726.53;696890;28;4571;-63
2022/10/18 00:12:58;;;;;;;9.90;5.20;;;;;;;14.01;100.00;101736.19;698129;28;1302;-63
2022/10/18 00:13:18;;;;;;;7.93;5.20;;;;;;;14.01;100.00;101733.56;697708;28;1346;-63
2022/10/18 00:13:39;;;;;;;10.33;5.30;;;;;;;14.03;100.00;101736.19;697827;28;1469;-63
2022/10/18 00:14:00;;;;;;;9.63;5.20;;;;;;;14.03;100.00;101733.56;696548;28;1095;-63
2022/10/18 00:14:20;;;;;;;8.73;5.20;;;;;;;14.05;100.00;101732.69;697132;28;1159;-63
2022/10/18 00:14:41;;;;;;;8.35;5.10;;;;;;;14.05;100.00;101732.69;697492;28;1182;-63
2022/10/18 00:15:02;;;;;;;8.33;5.50;;;;;;;14.05;100.00;101735.31;698133;28;1174;-63
2022/10/18 00:15:22;;;;;;;7.75;5.53;;;;;;;14.07;100.00;101732.69;697837;28;1194;-63
2022/10/18 00:15:55;;;;;;;8.80;5.43;;;;;;;14.08;100.00;101732.66;697170;28;4450;-64
2022/10/18 00:16:17;;;;;;;9.27;5.32;;;;;;;14.09;100.00;101736.16;697075;28;3661;-63
2022/10/18 00:16:38;;;;;;;7.68;5.10;;;;;;;14.09;100.00;101733.53;695463;28;1444;-63
2022/10/18 00:16:58;;;;;;;8.07;5.27;;;;;;;14.10;100.00;101732.66;695816;28;1161;-63
2022/10/18 00:17:18;;;;;;;8.27;5.40;;;;;;;14.10;100.00;101732.66;696809;28;931;-63
2022/10/18 00:17:39;;;;;;;9.20;5.17;;;;;;;14.11;100.00;101731.78;696584;28;1239;-63
2022/10/18 00:17:59;;;;;;;8.85;5.05;;;;;;;14.10;100.00;101732.66;694282;28;1163;-63
2022/10/18 00:18:20;;;;;;;9.00;5.20;;;;;;;14.10;100.00;101736.16;694967;28;1200;-63
2022/10/18 00:18:41;;;;;;;9.27;5.32;;;;;;;14.10;100.00;101733.53;694279;28;4781;-64
2022/10/18 00:19:02;;;;;;;10.90;5.15;;;;;;;14.09;100.00;101730.91;691419;28;1510;-63
2022/10/18 00:19:22;;;;;;;8.95;4.90;;;;;;;14.08;100.00;101735.28;691270;28;1208;-63
2022/10/18 00:19:43;;;;;;;8.53;4.83;;;;;;;14.08;100.00;101731.78;694369;28;1286;-63
2022/10/18 00:20:05;;;;;;;9.43;5.10;;;;;;;14.06;100.00;101730.91;695444;28;1185;-63
2022/10/18 00:20:26;;;;;;;8.55;5.38;;;;;;;14.05;100.00;101732.69;695651;28;1174;-63
2022/10/18 00:20:59;;;;;;;8.07;5.45;;;;;;;14.06;100.00;101738.81;697300;28;1091;-63
2022/10/18 00:21:22;;;;;;;9.43;5.50;;;;;;;14.05;100.00;101724.78;696510;28;1214;-63
2022/10/18 00:21:42;;;;;;;9.10;5.43;;;;;;;14.03;100.00;101736.19;696384;28;4465;-63
2022/10/18 00:22:03;;;;;;;8.10;5.33;;;;;;;14.04;100.00;101732.66;697034;28;1075;-63
2022/10/18 00:22:24;;;;;;;9.05;5.30;;;;;;;14.04;100.00;101730.91;696856;28;1118;-63
2022/10/18 00:22:44;;;;;;;10.43;5.25;;;;;;;14.06;100.00;101734.41;696685;28;1170;-63
2022/10/18 00:23:05;;;;;;;10.10;5.65;;;;;;;14.09;100.00;101731.75;696781;28;1107;-63
2022/10/18 00:23:27;;;;;;;8.77;5.87;;;;;;;14.12;100.00;101728.25;696461;28;1185;-63
2022/10/18 00:23:49;;;;;;;8.07;5.40;;;;;;;14.13;100.00;101727.38;697124;28;1115;-63
2022/10/18 00:24:09;;;;;;;8.38;5.47;;;;;;;14.12;100.00;101725.63;697730;28;1560;-63
2022/10/18 00:24:30;;;;;;;9.67;5.40;;;;;;;14.12;100.00;101725.63;697652;28;1210;-63
2022/10/18 00:24:50;;;;;;;10.20;5.53;;;;;;;14.11;100.00;101724.75;697644;28;4354;-63
2022/10/18 00:25:11;;;;;;;10.77;5.60;;;;;;;14.11;100.00;101719.50;697235;28;1077;-63
2022/10/18 00:25:31;;;;;;;10.23;5.10;;;;;;;14.11;100.00;101727.41;697980;28;1262;-63
2022/10/18 00:26:02;;;;;;;9.60;5.40;;;;;;;14.12;100.00;101725.63;695533;28;1400;-63
2022/10/18 00:26:25;;;;;;;10.32;5.60;;;;;;;14.12;100.00;101720.38;695972;28;1139;-63
2022/10/18 00:26:46;;;;;;;10.60;5.40;;;;;;;14.14;100.00;101723.88;695316;28;1393;-63
2022/10/18 00:27:06;;;;;;;9.57;5.33;;;;;;;14.14;100.00;101724.75;695881;28;1343;-63
2022/10/18 00:27:31;;;;;;;8.90;5.27;;;;;;;14.14;100.00;101716.84;694780;28;1913;-63
2022/10/18 00:27:51;;;;;;;8.07;5.18;;;;;;;14.14;100.00;101723.88;693765;28;4738;-63
2022/10/18 00:28:11;;;;;;;8.27;5.33;;;;;;;14.13;100.00;101728.25;695088;28;1230;-63
2022/10/18 00:28:33;;;;;;;8.60;5.53;;;;;;;14.14;100.00;101726.50;695412;28;1245;-63
2022/10/18 00:29:00;;;;;;;9.57;5.40;;;;;;;14.14;100.00;101718.63;697092;28;1429;-64
2022/10/18 00:29:20;;;;;;;10.90;5.72;;;;;;;14.16;100.00;101718.63;696009;28;1225;-63
2022/10/18 00:29:40;;;;;;;11.27;5.93;;;;;;;14.15;100.00;101717.75;695814;28;1099;-63
2022/10/18 00:30:01;;;;;;;9.05;5.70;;;;;;;14.16;100.00;101719.47;696418;28;1388;-63
2022/10/18 00:30:21;;;;;;;8.70;5.50;;;;;;;14.16;100.00;101722.13;697194;28;1212;-63
2022/10/18 00:30:42;;;;;;;8.23;5.40;;;;;;;14.16;100.00;101716.00;696381;28;4489;-62
2022/10/18 00:31:20;;;;;;;7.77;5.53;;;;;;;14.14;100.00;101722.13;697561;28;1134;-63
2022/10/18 00:31:42;;;;;;;7.70;5.47;;;;;;;14.14;100.00;101714.22;697006;28;1059;-63
2022/10/18 00:32:02;;;;;;;8.23;5.90;;;;;;;14.16;100.00;101721.25;696663;28;1098;-63
2022/10/18 00:32:24;;;;;;;11.20;5.80;;;;;;;14.13;100.00;101720.34;697085;28;1074;-63
2022/10/18 00:32:44;;;;;;;10.00;5.72;;;;;;;14.14;100.00;101719.50;697300;28;1118;-63
2022/10/18 00:33:04;;;;;;;8.38;5.95;;;;;;;14.16;100.00;101721.25;696805;28;1158;-63
2022/10/18 00:33:25;;;;;;;8.50;6.13;;;;;;;14.14;100.00;101716.00;696425;28;1110;-63
2022/10/18 00:33:48;;;;;;;9.30;6.17;;;;;;;14.15;100.00;101712.50;696953;28;4312;-63
2022/10/18 00:34:12;;;;;;;10.35;6.25;;;;;;;14.14;100.00;101719.50;696322;28;1274;-63
2022/10/18 00:34:33;;;;;;;10.43;6.22;;;;;;;14.14;100.00;101719.50;697365;28;1301;-63
2022/10/18 00:34:53;;;;;;;8.00;6.23;;;;;;;14.15;100.00;101723.00;696944;28;1276;-63
2022/10/18 00:35:13;;;;;;;8.30;5.78;;;;;;;14.16;100.00;101714.22;697537;28;1431;-63
2022/10/18 00:35:34;;;;;;;8.67;5.70;;;;;;;14.17;100.00;101713.34;695622;28;1055;-63
2022/10/18 00:35:54;;;;;;;7.35;5.50;;;;;;;14.19;100.00;101722.13;696489;28;1488;-63
2022/10/18 00:36:15;;;;;;;7.83;5.20;;;;;;;14.20;100.00;101721.22;696482;28;1249;-64
2022/10/18 00:36:35;;;;;;;7.00;5.13;;;;;;;14.20;100.00;101713.34;695853;28;4367;-62
2022/10/18 00:36:56;;;;;;;7.03;5.23;;;;;;;14.20;100.00;101718.59;696746;28;1443;-63
2022/10/18 00:37:16;;;;;;;8.00;5.53;;;;;;;14.19;100.00;101716.88;696935;28;1364;-63
2022/10/18 00:37:37;;;;;;;9.20;5.60;;;;;;;14.20;100.00;101717.72;695947;28;1506;-63
2022/10/18 00:37:57;;;;;;;8.67;5.63;;;;;;;14.19;100.00;101716.88;696452;28;1083;-63
2022/10/18 00:38:17;;;;;;;9.90;5.87;;;;;;;14.18;100.00;101715.09;699264;28;1156;-63
2022/10/18 00:38:39;;;;;;;9.05;5.63;;;;;;;14.20;100.00;101715.09;698981;28;1166;-63
2022/10/18 00:39:00;;;;;;;8.02;5.30;;;;;;;14.19;100.00;101714.25;699986;28;5306;-63
2022/10/18 00:39:21;;;;;;;8.85;5.20;;;;;;;14.19;100.00;101719.50;698946;28;1103;-63
2022/10/18 00:39:41;;;;;;;8.27;5.17;;;;;;;14.18;100.00;101715.09;697942;28;4439;-63
2022/10/18 00:40:03;;;;;;;9.95;5.60;;;;;;;14.20;100.00;101709.84;699312;28;1141;-63
2022/10/18 00:40:23;;;;;;;9.68;5.60;;;;;;;14.19;100.00;101711.63;696744;28;1154;-63
2022/10/18 00:40:43;;;;;;;9.80;5.50;;;;;;;14.19;100.00;101714.25;697426;28;1129;-63
2022/10/18 00:41:06;;;;;;;10.40;5.50;;;;;;;14.18;100.00;101711.59;699044;28;1170;-63
2022/10/18 00:41:30;;;;;;;8.43;5.50;;;;;;;14.17;100.00;101715.97;699304;28;1561;-63
2022/10/18 00:41:50;;;;;;;7.93;5.25;;;;;;;14.18;100.00;101715.09;698734;28;1412;-62
2022/10/18 00:42:16;;;;;;;8.80;5.35;;;;;;;14.18;100.00;101714.22;698994;28;1157;-62
2022/10/18 00:42:37;;;;;;;11.70;5.60;;;;;;;14.17;100.00;101707.22;698826;28;4607;-63
2022/10/18 00:42:57;;;;;;;7.82;5.32;;;;;;;14.17;100.00;101717.75;698891;28;1563;-63
2022/10/18 00:43:18;;;;;;;9.05;5.35;;;;;;;14.16;100.00;101710.72;697158;28;1222;-62
2022/10/18 00:43:51;;;;;;;9.13;5.30;;;;;;;14.14;100.00;101708.97;696614;28;1111;-63
2022/10/18 00:44:12;;;;;;;8.05;5.50;;;;;;;14.15;100.00;101707.25;696801;28;1238;-63
2022/10/18 00:44:32;;;;;;;8.63;5.70;;;;;;;14.16;100.00;101710.72;697143;28;1305;-63
2022/10/18 00:45:29;;;;;;;8.77;5.57;;;;;;;14.14;100.00;101708.97;696745;28;1366;-63
2022/10/18 00:45:49;;;;;;;8.85;5.68;;;;;;;14.14;100.00;101718.63;682433;28;4389;-63
2022/10/18 00:46:09;;;;;;;8.13;5.77;;;;;;;14.14;100.00;101714.22;689593;28;1243;-62
2022/10/18 00:46:33;;;;;;;10.27;6.03;;;;;;;14.14;100.00;101710.75;696681;28;1332;-63
2022/10/18 00:47:03;;;;;;;9.73;5.90;;;;;;;14.14;100.00;101718.63;696588;28;1313;-62
2022/10/18 00:47:25;;;;;;;8.13;5.65;;;;;;;14.13;100.00;101706.34;696673;28;1906;-63
2022/10/18 00:47:50;;;;;;;8.75;5.80;;;;;;;14.12;100.00;101707.22;697012;28;1358;-63
2022/10/18 00:48:13;;;;;;;9.15;5.90;;;;;;;14.11;100.00;101705.50;696764;28;1122;-63
2022/10/18 00:48:34;;;;;;;8.63;5.72;;;;;;;14.11;100.00;101706.34;697132;28;1669;-63
2022/10/18 00:48:56;;;;;;;8.63;5.70;;;;;;;14.13;100.00;101716.88;696544;28;4432;-63
2022/10/18 00:49:30;;;;;;;11.88;5.97;;;;;;;14.14;100.00;101710.75;697628;28;1459;-63
2022/10/18 00:49:54;;;;;;;8.82;5.88;;;;;;;14.16;100.00;101705.47;696937;28;1186;-63
2022/10/18 00:50:15;;;;;;;9.60;5.80;;;;;;;14.17;100.00;101710.72;696965;28;1381;-63
2022/10/18 00:50:35;;;;;;;10.13;5.97;;;;;;;14.18;100.00;101712.47;695859;28;1201;-63
2022/10/18 00:50:56;;;;;;;8.67;5.73;;;;;;;14.18;100.00;101714.22;697096;28;1288;-63
2022/10/18 00:51:18;;;;;;;8.32;6.00;;;;;;;14.16;100.00;101708.97;697577;28;1436;-62
2022/10/18 00:51:43;;;;;;;8.15;6.13;;;;;;;14.15;100.00;101709.88;696076;28;4694;-63
2022/10/18 00:52:10;;;;;;;11.73;6.10;;;;;;;14.13;100.00;101701.97;697631;28;1150;-63
2022/10/18 00:52:33;;;;;;;9.63;5.60;;;;;;;14.11;100.00;101708.13;696235;28;1210;-63
2022/10/18 00:52:59;;;;;;;8.45;5.65;;;;;;;14.10;100.00;101709.00;696639;28;1324;-63
2022/10/18 00:53:21;;;;;;;8.65;5.88;;;;;;;14.09;100.00;101702.84;697202;28;1205;-63
2022/10/18 00:53:42;;;;;;;9.35;5.90;;;;;;;14.10;100.00;101709.00;696528;28;1221;-63
2022/10/18 00:54:02;;;;;;;10.10;6.05;;;;;;;14.09;100.00;101702.84;699595;28;1110;-63
2022/10/18 00:54:25;;;;;;;8.38;5.85;;;;;;;14.10;100.00;101698.47;699323;28;1178;-63
2022/10/18 00:54:47;;;;;;;8.40;5.72;;;;;;;14.10;100.00;101701.09;698778;28;4363;-63
2022/10/18 00:55:08;;;;;;;7.90;5.68;;;;;;;14.12;100.00;101715.09;699704;28;1296;-63
2022/10/18 00:55:30;;;;;;;8.32;5.55;;;;;;;14.11;100.00;101698.47;698611;28;1312;-63
2022/10/18 00:55:51;;;;;;;9.27;5.90;;;;;;;14.11;100.00;101706.34;697229;28;1364;-64
2022/10/18 00:56:12;;;;;;;8.10;5.80;;;;;;;14.11;100.00;101710.75;697828;28;1313;-63
2022/10/18 00:56:33;;;;;;;9.45;5.68;;;;;;;14.10;100.00;101707.22;697108;28;1325;-63
2022/10/18 00:56:53;;;;;;;9.15;5.40;;;;;;;14.10;100.00;101709.00;698045;28;1432;-63
2022/10/18 00:57:14;;;;;;;8.75;5.70;;;;;;;14.10;100.00;101703.75;697246;28;1293;-63
2022/10/18 00:57:36;;;;;;;8.45;5.70;;;;;;;14.11;100.00;101705.50;697678;28;1345;-63
2022/10/18 00:57:56;;;;;;;7.55;5.18;;;;;;;14.11;100.00;101701.09;696141;28;6095;-63
2022/10/18 00:58:18;;;;;;;9.20;5.63;;;;;;;14.11;100.00;101705.50;695575;28;1041;-63
2022/10/18 00:58:40;;;;;;;9.20;5.90;;;;;;;14.11;100.00;101698.47;695873;28;1165;-63
2022/10/18 00:59:01;;;;;;;8.80;5.80;;;;;;;14.12;100.00;101709.84;696838;28;1230;-63
2022/10/18 00:59:22;;;;;;;10.48;6.05;;;;;;;14.12;100.00;101699.34;697485;28;1068;-63
2022/10/18 00:59:44;;;;;;;9.85;5.82;;;;;;;14.11;100.00;101705.50;697217;28;1229;-63
2022/10/18 01:00:08;;;;;;;7.75;5.50;;;;;;;14.12;100.00;101707.22;696638;28;1170;-63
2022/10/18 01:00:29;;;;;;;8.45;5.53;;;;;;;14.13;100.00;101706.34;696740;28;1340;-63
2022/10/18 01:00:49;;;;;;;8.23;5.50;;;;;;;14.11;100.00;101703.72;697313;28;4503;-63
2022/10/18 01:01:09;;;;;;;8.00;5.70;;;;;;;14.11;100.00;101703.72;696156;28;1389;-63
2022/10/18 01:01:30;;;;;;;8.93;5.53;;;;;;;14.12;100.00;101701.97;697970;28;1283;-63
2022/10/18 01:01:50;;;;;;;7.25;5.28;;;;;;;14.10;100.00;101704.59;699745;28;1237;-63
2022/10/18 01:02:13;;;;;;;7.67;5.07;;;;;;;14.09;100.00;101704.59;699264;28;1186;-63
2022/10/18 01:02:36;;;;;;;8.25;4.82;;;;;;;14.08;100.00;101703.75;698924;28;1342;-63
2022/10/18 01:02:57;;;;;;;8.30;5.13;;;;;;;14.08;100.00;101705.47;700132;28;1499;-63
2022/10/18 01:03:18;;;;;;;10.43;5.40;;;;;;;14.08;100.00;101702.84;700889;28;1225;-63
2022/10/18 01:03:39;;;;;;;9.20;5.30;;;;;;;14.06;100.00;101702.00;697919;28;4432;-63
2022/10/18 01:04:00;;;;;;;7.30;5.30;;;;;;;14.07;100.00;101701.13;697747;28;1146;-63
2022/10/18 01:04:21;;;;;;;9.20;5.50;;;;;;;14.07;100.00;101702.00;697273;28;1086;-63
2022/10/18 01:04:41;;;;;;;8.63;5.22;;;;;;;14.08;100.00;101697.59;696673;28;1249;-63
2022/10/18 01:05:02;;;;;;;8.07;5.37;;;;;;;14.08;100.00;101700.22;696763;28;1111;-63
2022/10/18 01:05:23;;;;;;;9.53;5.10;;;;;;;14.07;100.00;101702.00;697280;28;1109;-63
2022/10/18 01:05:46;;;;;;;9.27;5.00;;;;;;;14.07;100.00;101695.88;695960;28;1143;-63
2022/10/18 01:06:07;;;;;;;8.68;5.35;;;;;;;14.07;100.00;101701.13;696590;28;1274;-63
2022/10/18 01:06:28;;;;;;;9.15;5.35;;;;;;;14.07;100.00;101701.13;697801;28;1216;-63
2022/10/18 01:07:13;;;;;;;8.70;4.90;;;;;;;14.08;100.00;101700.22;695943;28;4366;-63
2022/10/18 01:07:43;;;;;;;7.65;4.82;;;;;;;14.08;100.00;101698.50;697615;28;1906;-63
2022/10/18 01:08:23;;;;;;;7.50;4.85;;;;;;;14.10;100.00;101695.84;697811;28;1117;-63
2022/10/18 01:08:57;;;;;;;6.90;4.40;;;;;;;14.10;100.00;101696.72;692194;28;1335;-63
2022/10/18 01:09:38;;;;;;;9.55;4.95;;;;;;;14.11;100.00;101694.97;691871;28;1528;-63
2022/10/18 01:10:13;;;;;;;9.98;4.63;;;;;;;14.11;100.00;101689.72;697729;28;5064;-63
2022/10/18 01:10:52;;;;;;;8.23;4.80;;;;;;;14.11;100.00;101694.97;696648;28;1241;-63
2022/10/18 01:11:31;;;;;;;7.50;4.45;;;;;;;14.09;100.00;101686.22;696209;28;1300;-62
2022/10/18 01:12:12;;;;;;;9.40;4.70;;;;;;;14.09;100.00;101689.69;697751;28;1407;-63
2022/10/18 01:12:55;;;;;;;10.30;4.65;;;;;;;14.09;100.00;101691.47;696389;28;3496;-63
2022/10/18 01:13:26;;;;;;;7.78;4.53;;;;;;;14.08;100.00;101690.59;696728;28;4800;-63
2022/10/18 01:13:56;;;;;;;7.95;4.43;;;;;;;14.07;100.00;101686.22;697856;28;1095;-63
2022/10/18 01:14:53;;;;;;;9.18;4.80;;;;;;;14.08;100.00;101687.06;696824;28;1364;-63
2022/10/18 01:15:24;;;;;;;8.52;4.82;;;;;;;14.07;100.00;101687.97;694373;28;1702;-63
2022/10/18 01:15:58;;;;;;;7.53;4.78;;;;;;;14.08;100.00;101684.44;696728;28;4474;-63
2022/10/18 01:16:34;;;;;;;8.00;4.95;;;;;;;14.10;100.00;101687.97;697668;28;1111;-63
2022/10/18 01:17:02;;;;;;;6.97;4.78;;;;;;;14.09;100.00;101686.22;697018;28;1190;-63
2022/10/18 01:17:45;;;;;;;8.20;4.95;;;;;;;14.07;100.00;101691.47;697245;28;1094;-63
2022/10/18 01:18:16;;;;;;;6.28;4.53;;;;;;;14.07;100.00;101685.34;697666;28;1141;-63
2022/10/18 01:18:51;;;;;;;8.35;4.68;;;;;;;14.06;100.00;101688.84;696650;28;4678;-63
2022/10/18 01:19:48;;;;;;;7.20;4.70;;;;;;;14.06;100.00;101684.47;696785;28;1203;-63
2022/10/18 01:20:36;;;;;;;7.88;4.93;;;;;;;14.09;100.00;101683.56;697924;28;1217;-63
2022/10/18 01:20:59;;;;;;;9.32;4.90;;;;;;;14.09;100.00;101683.56;698089;28;1368;-64
2022/10/18 01:21:25;;;;;;;10.20;5.07;;;;;;;14.09;100.00;101688.84;697922;28;1195;-63
2022/10/18 01:22:10;;;;;;;9.10;4.90;;;;;;;14.09;100.00;101688.84;697394;28;4468;-64
2022/10/18 01:22:46;;;;;;;7.82;4.90;;;;;;;14.09;100.00;101691.47;696989;28;1304;-63
2022/10/18 01:23:31;;;;;;;8.98;4.60;;;;;;;14.08;100.00;101695.84;697277;28;1281;-63
2022/10/18 01:24:09;;;;;;;8.90;4.80;;;;;;;14.08;100.00;101689.69;696487;28;1312;-63
2022/10/18 01:24:39;;;;;;;8.75;4.80;;;;;;;14.09;100.00;101688.84;697478;28;1384;-63
2022/10/18 01:25:23;;;;;;;6.55;4.50;;;;;;;14.08;100.00;101685.34;696379;28;5448;-63
2022/10/18 01:26:02;;;;;;;7.22;4.32;;;;;;;14.06;100.00;101697.59;697373;28;1093;-63
2022/10/18 01:26:44;;;;;;;9.95;4.90;;;;;;;14.07;100.00;101693.25;697165;28;1182;-63
2022/10/18 01:27:26;;;;;;;10.00;4.78;;;;;;;14.06;100.00;101694.09;697228;28;1414;-63
2022/10/18 01:28:01;;;;;;;6.57;4.50;;;;;;;14.02;100.00;101690.59;694581;28;5344;-63
2022/10/18 01:28:33;;;;;;;9.98;4.80;;;;;;;14.01;100.00;101688.88;694977;28;1146;-63
2022/10/18 01:29:24;;;;;;;8.07;4.60;;;;;;;14.01;100.00;101695.88;694302;28;1450;-62
2022/10/18 01:30:03;;;;;;;8.20;4.60;;;;;;;13.98;100.00;101686.22;696353;28;1204;-63
2022/10/18 01:30:41;;;;;;;9.98;4.80;;;;;;;13.95;100.00;101687.09;697381;28;1071;-64
2022/10/18 01:31:13;;;;;;;8.68;4.60;;;;;;;13.94;100.00;101685.38;696003;28;5273;-63
2022/10/18 01:31:47;;;;;;;8.73;4.63;;;;;;;13.93;100.00;101683.63;697144;28;1325;-63
2022/10/18 01:32:13;;;;;;;8.63;4.70;;;;;;;13.93;100.00;101686.25;697406;28;1106;-63
2022/10/18 01:32:40;;;;;;;7.95;4.60;;;;;;;13.92;100.00;101676.59;697401;28;1307;-63
2022/10/18 01:33:18;;;;;;;6.25;4.22;;;;;;;13.93;100.00;101688.88;697118;28;1130;-66
2022/10/18 01:33:44;;;;;;;9.27;4.75;;;;;;;13.95;100.00;101688.88;697287;28;4406;-64
2022/10/18 01:34:08;;;;;;;8.93;4.80;;;;;;;13.92;100.00;101681.88;696885;28;1141;-63
2022/10/18 01:34:32;;;;;;;8.45;5.00;;;;;;;13.93;100.00;101683.63;697194;28;1241;-63
2022/10/18 01:35:00;;;;;;;9.10;4.85;;;;;;;13.93;100.00;101675.72;697340;28;1400;-64
2022/10/18 01:35:30;;;;;;;7.97;4.93;;;;;;;13.92;100.00;101678.38;697269;28;1178;-63
2022/10/18 01:36:12;;;;;;;7.97;4.75;;;;;;;13.92;100.00;101679.22;696471;28;1306;-63
2022/10/18 01:36:47;;;;;;;8.85;4.90;;;;;;;13.93;100.00;101683.63;696374;28;1554;-64
2022/10/18 01:37:12;;;;;;;9.00;4.65;;;;;;;13.93;100.00;101694.13;696894;28;4916;-64
2022/10/18 01:37:35;;;;;;;8.13;4.70;;;;;;;13.93;100.00;101680.13;696851;28;1328;-63
2022/10/18 01:38:00;;;;;;;8.70;4.53;;;;;;;13.95;100.00;101683.63;698008;28;1325;-64
2022/10/18 01:38:23;;;;;;;8.32;4.78;;;;;;;13.95;100.00;101683.63;697839;28;1195;-63
2022/10/18 01:38:47;;;;;;;9.45;4.60;;;;;;;13.96;100.00;101680.13;697325;28;5014;-63
2022/10/18 01:39:13;;;;;;;8.18;4.60;;;;;;;13.96;100.00;101682.75;697940;28;1157;-63
2022/10/18 01:39:37;;;;;;;8.30;4.85;;;;;;;13.95;100.00;101681.84;698329;28;1355;-63
2022/10/18 01:40:02;;;;;;;7.75;4.90;;;;;;;13.96;100.00;101683.59;697645;28;4863;-64
2022/10/18 01:40:24;;;;;;;8.38;4.90;;;;;;;13.96;100.00;101683.59;697504;28;1226;-64
2022/10/18 01:40:47;;;;;;;7.88;4.63;;;;;;;13.98;100.00;101688.00;697226;28;1188;-65
2022/10/18 01:41:11;;;;;;;7.68;4.53;;;;;;;13.98;100.00;101682.75;697138;28;1217;-64
2022/10/18 01:41:34;;;;;;;7.72;4.90;;;;;;;13.98;100.00;101685.38;696776;28;1182;-63
2022/10/18 01:41:58;;;;;;;7.35;4.78;;;;;;;13.98;100.00;101688.00;696775;28;1423;-63
2022/10/18 01:42:19;;;;;;;8.02;4.75;;;;;;;13.99;100.00;101687.13;697071;28;1193;-64
2022/10/18 01:42:42;;;;;;;7.85;4.88;;;;;;;13.99;100.00;101681.88;697004;28;4333;-63
2022/10/18 01:43:04;;;;;;;7.90;4.97;;;;;;;13.99;100.00;101692.38;697686;28;1209;-64
2022/10/18 01:43:27;;;;;;;7.97;5.15;;;;;;;13.98;100.00;101691.50;697329;28;1102;-64
2022/10/18 01:43:53;;;;;;;7.53;4.90;;;;;;;13.98;100.00;101685.38;697603;28;1305;-63
2022/10/18 01:44:19;;;;;;;7.38;4.82;;;;;;;13.95;100.00;101679.22;697054;28;1288;-64
2022/10/18 01:44:40;;;;;;;7.95;4.95;;;;;;;13.96;100.00;101688.88;697188;28;1344;-64
2022/10/18 01:45:02;;;;;;;8.48;5.00;;;;;;;13.96;100.00;101683.59;697722;28;1347;-63
2022/10/18 01:45:24;;;;;;;6.68;4.60;;;;;;;13.95;100.00;101681.84;698819;28;1379;-63
2022/10/18 01:45:45;;;;;;;8.18;4.60;;;;;;;13.96;100.00;101683.59;699128;28;4370;-64
2022/10/18 01:46:08;;;;;;;7.63;4.50;;;;;;;13.98;100.00;101690.63;699135;28;1122;-64
2022/10/18 01:46:28;;;;;;;8.32;4.70;;;;;;;13.96;100.00;101683.59;698967;28;1165;-64
2022/10/18 01:46:53;;;;;;;7.57;4.55;;;;;;;13.98;100.00;101686.22;700020;28;1150;-64
2022/10/18 01:47:14;;;;;;;7.63;4.47;;;;;;;14.00;100.00;101688.84;698629;28;1312;-64
2022/10/18 01:47:35;;;;;;;7.50;4.80;;;;;;;14.01;100.00;101690.59;697321;28;1984;-64
2022/10/18 01:47:56;;;;;;;8.00;4.70;;;;;;;14.03;100.00;101686.25;697918;28;1393;-63
2022/10/18 01:48:17;;;;;;;8.43;4.85;;;;;;;14.03;100.00;101692.34;697097;28;1499;-64
2022/10/18 01:48:38;;;;;;;8.40;4.90;;;;;;;14.04;100.00;101693.22;697048;28;4743;-64
2022/10/18 01:48:59;;;;;;;8.47;5.00;;;;;;;14.05;100.00;101688.00;697595;28;1150;-63
2022/10/18 01:49:19;;;;;;;9.75;5.00;;;;;;;14.07;100.00;101690.59;698027;28;1152;-64
2022/10/18 01:49:40;;;;;;;9.13;4.93;;;;;;;14.07;100.00;101686.22;697522;28;1166;-64
2022/10/18 01:50:04;;;;;;;7.75;4.60;;;;;;;14.07;100.00;101688.84;697303;28;1193;-63
2022/10/18 01:50:30;;;;;;;7.75;4.60;;;;;;;14.07;100.00;101680.94;696922;28;1194;-63
2022/10/18 01:50:52;;;;;;;9.13;4.85;;;;;;;14.07;100.00;101685.34;696996;28;1440;-63
2022/10/18 01:51:12;;;;;;;8.75;4.70;;;;;;;14.07;100.00;101685.34;696436;28;1274;-64
2022/10/18 01:51:33;;;;;;;8.87;4.93;;;;;;;14.08;100.00;101687.06;696671;28;1416;-64
2022/10/18 01:51:53;;;;;;;9.75;4.88;;;;;;;14.08;100.00;101679.19;696080;28;4382;-63
2022/10/18 01:52:15;;;;;;;9.00;4.60;;;;;;;14.08;100.00;101687.06;697807;28;1310;-64
2022/10/18 01:52:48;;;;;;;9.05;4.97;;;;;;;14.08;100.00;101681.81;695658;28;1315;-64
2022/10/18 01:53:25;;;;;;;9.70;4.75;;;;;;;14.08;100.00;101681.81;696645;28;1270;-64
2022/10/18 01:53:45;;;;;;;9.45;4.50;;;;;;;14.06;100.00;101679.19;697280;28;967;-64
2022/10/18 01:54:06;;;;;;;9.25;4.63;;;;;;;14.06;100.00;101683.59;698663;28;1312;-63
2022/10/18 01:54:31;;;;;;;7.53;4.83;;;;;;;14.05;100.00;101687.09;696830;28;1155;-64
2022/10/18 01:54:54;;;;;;;7.70;4.68;;;;;;;14.04;100.00;101685.34;693011;28;4442;-64
2022/10/18 01:55:14;;;;;;;7.95;4.80;;;;;;;14.03;100.00;101688.88;697793;28;1431;-64
2022/10/18 01:55:46;;;;;;;11.02;4.72;;;;;;;14.00;100.00;101689.75;697302;28;1703;-63